sensor_id;sensor_type;location;lat;lon;timestamp;temperature;humidity
6174;DHT22;3120;48.796;9.796;2022-10-31T00:12:41;9.50;99.90
6174;DHT22;3120;48.796;9.796;2022-10-31T00:15:17;7.80;99.90
6174;DHT22;3120;48.796;9.796;2022-10-31T00:17:49;9.30;99.90
6174;DHT22;3120;48.796;9.796;2022-10-31T00:26:09;9.40;99.90
6174;DHT22;3120;48.796;9.796;2022-10-31T00:28:47;8.30;99.90
6174;DHT22;3120;48.796;9.796;2022-10-31T00:39:04;9.20;99.90
6174;DHT22;3120;48.796;9.796;2022-10-31T00:41:34;9.80;99.90
6174;DHT22;3120;48.796;9.796;2022-10-31T00:44:03;8.40;99.90
6174;DHT22;3120;48.796;9.796;2022-10-31T00:46:34;9.20;99.90
6174;DHT22;3120;48.796;9.796;2022-10-31T00:49:05;9.20;99.90
6174;DHT22;3120;48.796;9.796;2022-10-31T00:51:47;9.20;99.90
6174;DHT22;3120;48.796;9.796;2022-10-31T00:54:47;9.00;99.90
6174;DHT22;3120;48.796;9.796;2022-10-31T00:57:25;8.80;99.90
6174;DHT22;3120;48.796;9.796;2022-10-31T01:03:25;9.00;99.90
6174;DHT22;3120;48.796;9.796;2022-10-31T01:06:34;8.50;99.90
6174;DHT22;3120;48.796;9.796;2022-10-31T01:13:35;8.70;99.90
6174;DHT22;3120;48.796;9.796;2022-10-31T01:19:04;7.80;99.90
6174;DHT22;3120;48.796;9.796;2022-10-31T01:21:55;8.90;99.90
6174;DHT22;3120;48.796;9.796;2022-10-31T01:25:10;8.90;99.90
6174;DHT22;3120;48.796;9.796;2022-10-31T01:30:17;8.90;99.90
6174;DHT22;3120;48.796;9.796;2022-10-31T01:32:49;10.50;99.90
6174;DHT22;3120;48.796;9.796;2022-10-31T01:35:16;7.30;99.90
6174;DHT22;3120;48.796;9.796;2022-10-31T01:37:46;8.80;99.90
6174;DHT22;3120;48.796;9.796;2022-10-31T01:40:13;9.30;99.90
6174;DHT22;3120;48.796;9.796;2022-10-31T01:42:40;8.70;99.90
6174;DHT22;3120;48.796;9.796;2022-10-31T01:45:10;8.60;99.90
6174;DHT22;3120;48.796;9.796;2022-10-31T01:47:46;8.50;99.90
6174;DHT22;3120;48.796;9.796;2022-10-31T01:50:39;8.60;99.90
6174;DHT22;3120;48.796;9.796;2022-10-31T01:53:08;8.40;99.90
6174;DHT22;3120;48.796;9.796;2022-10-31T01:55:39;9.10;99.90
6174;DHT22;3120;48.796;9.796;2022-10-31T01:58:20;7.50;99.90
6174;DHT22;3120;48.796;9.796;2022-10-31T02:00:52;8.50;99.90
6174;DHT22;3120;48.796;9.796;2022-10-31T02:03:20;8.50;99.90
6174;DHT22;3120;48.796;9.796;2022-10-31T02:05:49;10.10;99.90
6174;DHT22;3120;48.796;9.796;2022-10-31T02:08:33;9.30;99.90
6174;DHT22;3120;48.796;9.796;2022-10-31T02:11:00;8.50;99.90
6174;DHT22;3120;48.796;9.796;2022-10-31T02:13:28;8.50;99.90
6174;DHT22;3120;48.796;9.796;2022-10-31T02:15:57;10.10;99.90
6174;DHT22;3120;48.796;9.796;2022-10-31T02:18:26;9.60;99.90
6174;DHT22;3120;48.796;9.796;2022-10-31T02:24:12;8.20;99.90
6174;DHT22;3120;48.796;9.796;2022-10-31T02:33:18;8.30;99.90
6174;DHT22;3120;48.796;9.796;2022-10-31T02:35:36;8.40;99.90
6174;DHT22;3120;48.796;9.796;2022-10-31T02:38:23;9.60;99.90
6174;DHT22;3120;48.796;9.796;2022-10-31T02:41:03;7.20;99.90
6174;DHT22;3120;48.796;9.796;2022-10-31T02:46:45;8.40;99.90
6174;DHT22;3120;48.796;9.796;2022-10-31T02:49:40;8.30;99.90
6174;DHT22;3120;48.796;9.796;2022-10-31T02:52:24;8.40;99.90
6174;DHT22;3120;48.796;9.796;2022-10-31T02:54:51;8.40;99.90
6174;DHT22;3120;48.796;9.796;2022-10-31T02:57:28;8.30;99.90
6174;DHT22;3120;48.796;9.796;2022-10-31T03:00:09;8.30;99.90
6174;DHT22;3120;48.796;9.796;2022-10-31T03:06:28;9.60;99.90
6174;DHT22;3120;48.796;9.796;2022-10-31T03:09:10;8.30;99.90
6174;DHT22;3120;48.796;9.796;2022-10-31T03:11:58;8.30;99.90
6174;DHT22;3120;48.796;9.796;2022-10-31T03:14:51;8.20;99.90
6174;DHT22;3120;48.796;9.796;2022-10-31T03:17:44;8.20;99.90
6174;DHT22;3120;48.796;9.796;2022-10-31T03:20:12;7.50;99.90
6174;DHT22;3120;48.796;9.796;2022-10-31T03:22:44;8.10;99.90
6174;DHT22;3120;48.796;9.796;2022-10-31T03:25:14;7.10;99.90
6174;DHT22;3120;48.796;9.796;2022-10-31T03:27:45;8.20;99.90
6174;DHT22;3120;48.796;9.796;2022-10-31T03:30:12;7.00;99.90
6174;DHT22;3120;48.796;9.796;2022-10-31T03:32:54;8.20;99.90
6174;DHT22;3120;48.796;9.796;2022-10-31T03:35:23;7.90;99.90
6174;DHT22;3120;48.796;9.796;2022-10-31T03:37:54;9.70;99.90
6174;DHT22;3120;48.796;9.796;2022-10-31T03:40:25;9.00;99.90
6174;DHT22;3120;48.796;9.796;2022-10-31T03:43:11;8.80;99.90
6174;DHT22;3120;48.796;9.796;2022-10-31T03:45:44;8.10;99.90
6174;DHT22;3120;48.796;9.796;2022-10-31T03:48:11;9.40;99.90
6174;DHT22;3120;48.796;9.796;2022-10-31T03:50:58;7.70;99.90
6174;DHT22;3120;48.796;9.796;2022-10-31T03:53:34;7.60;99.90
6174;DHT22;3120;48.796;9.796;2022-10-31T03:56:12;7.40;99.90
6174;DHT22;3120;48.796;9.796;2022-10-31T03:58:47;7.90;99.90
6174;DHT22;3120;48.796;9.796;2022-10-31T04:01:16;8.80;99.90
6174;DHT22;3120;48.796;9.796;2022-10-31T04:03:46;7.60;99.90
6174;DHT22;3120;48.796;9.796;2022-10-31T04:06:14;8.70;99.90
6174;DHT22;3120;48.796;9.796;2022-10-31T04:08:51;9.50;99.90
6174;DHT22;3120;48.796;9.796;2022-10-31T04:11:21;8.00;99.90
6174;DHT22;3120;48.796;9.796;2022-10-31T04:13:49;8.10;99.90
6174;DHT22;3120;48.796;9.796;2022-10-31T04:16:17;8.10;99.90
6174;DHT22;3120;48.796;9.796;2022-10-31T04:18:44;10.00;99.90
6174;DHT22;3120;48.796;9.796;2022-10-31T04:21:10;9.50;99.90
6174;DHT22;3120;48.796;9.796;2022-10-31T04:23:36;8.00;99.90
6174;DHT22;3120;48.796;9.796;2022-10-31T04:26:02;7.90;99.90
6174;DHT22;3120;48.796;9.796;2022-10-31T04:28:27;10.40;99.90
6174;DHT22;3120;48.796;9.796;2022-10-31T04:30:53;10.30;99.90
6174;DHT22;3120;48.796;9.796;2022-10-31T04:33:19;9.00;99.90
6174;DHT22;3120;48.796;9.796;2022-10-31T04:35:45;7.90;99.90
6174;DHT22;3120;48.796;9.796;2022-10-31T04:38:11;7.90;99.90
6174;DHT22;3120;48.796;9.796;2022-10-31T04:40:36;7.90;99.90
6174;DHT22;3120;48.796;9.796;2022-10-31T04:43:02;7.90;99.90
6174;DHT22;3120;48.796;9.796;2022-10-31T04:45:27;8.20;99.90
6174;DHT22;3120;48.796;9.796;2022-10-31T04:47:53;7.80;99.90
6174;DHT22;3120;48.796;9.796;2022-10-31T04:50:18;9.30;99.90
6174;DHT22;3120;48.796;9.796;2022-10-31T04:52:45;7.80;99.90
6174;DHT22;3120;48.796;9.796;2022-10-31T04:55:12;7.80;99.90
6174;DHT22;3120;48.796;9.796;2022-10-31T04:57:46;7.80;99.90
6174;DHT22;3120;48.796;9.796;2022-10-31T05:00:14;7.80;99.90
6174;DHT22;3120;48.796;9.796;2022-10-31T05:02:54;7.80;99.90
6174;DHT22;3120;48.796;9.796;2022-10-31T05:05:25;7.80;99.90
6174;DHT22;3120;48.796;9.796;2022-10-31T05:07:52;7.80;99.90
6174;DHT22;3120;48.796;9.796;2022-10-31T05:10:23;7.80;99.90
6174;DHT22;3120;48.796;9.796;2022-10-31T05:12:56;8.40;99.90
6174;DHT22;3120;48.796;9.796;2022-10-31T05:15:24;9.80;99.90
6174;DHT22;3120;48.796;9.796;2022-10-31T05:17:50;7.60;99.90
6174;DHT22;3120;48.796;9.796;2022-10-31T05:20:17;7.60;99.90
6174;DHT22;3120;48.796;9.796;2022-10-31T05:22:45;7.60;99.90
6174;DHT22;3120;48.796;9.796;2022-10-31T05:25:11;7.70;99.90
6174;DHT22;3120;48.796;9.796;2022-10-31T05:27:41;7.60;99.90
6174;DHT22;3120;48.796;9.796;2022-10-31T05:30:08;7.60;99.90
6174;DHT22;3120;48.796;9.796;2022-10-31T05:32:41;7.60;99.90
6174;DHT22;3120;48.796;9.796;2022-10-31T05:35:09;7.60;99.90
6174;DHT22;3120;48.796;9.796;2022-10-31T05:37:35;7.60;99.90
6174;DHT22;3120;48.796;9.796;2022-10-31T05:40:05;7.50;99.90
6174;DHT22;3120;48.796;9.796;2022-10-31T05:42:32;7.40;99.90
6174;DHT22;3120;48.796;9.796;2022-10-31T05:44:58;8.50;99.90
6174;DHT22;3120;48.796;9.796;2022-10-31T05:47:24;7.40;99.90
6174;DHT22;3120;48.796;9.796;2022-10-31T05:49:50;7.40;99.90
6174;DHT22;3120;48.796;9.796;2022-10-31T05:52:16;7.50;99.90
6174;DHT22;3120;48.796;9.796;2022-10-31T05:54:41;7.40;99.90
6174;DHT22;3120;48.796;9.796;2022-10-31T05:57:07;7.50;99.90
6174;DHT22;3120;48.796;9.796;2022-10-31T05:59:32;8.10;99.90
6174;DHT22;3120;48.796;9.796;2022-10-31T06:01:58;7.50;99.90
6174;DHT22;3120;48.796;9.796;2022-10-31T06:04:24;7.60;99.90
6174;DHT22;3120;48.796;9.796;2022-10-31T06:06:50;7.60;99.90
6174;DHT22;3120;48.796;9.796;2022-10-31T06:09:16;7.60;99.90
6174;DHT22;3120;48.796;9.796;2022-10-31T06:11:43;7.70;99.90
6174;DHT22;3120;48.796;9.796;2022-10-31T06:14:09;7.70;99.90
6174;DHT22;3120;48.796;9.796;2022-10-31T06:16:34;9.80;99.90
6174;DHT22;3120;48.796;9.796;2022-10-31T06:19:01;7.60;99.90
6174;DHT22;3120;48.796;9.796;2022-10-31T06:21:27;7.80;99.90
6174;DHT22;3120;48.796;9.796;2022-10-31T06:23:52;7.50;99.90
6174;DHT22;3120;48.796;9.796;2022-10-31T06:26:18;7.60;99.90
6174;DHT22;3120;48.796;9.796;2022-10-31T06:28:44;7.60;99.90
6174;DHT22;3120;48.796;9.796;2022-10-31T06:31:09;7.60;99.90
6174;DHT22;3120;48.796;9.796;2022-10-31T06:33:35;9.50;99.90
6174;DHT22;3120;48.796;9.796;2022-10-31T06:36:01;7.60;99.90
6174;DHT22;3120;48.796;9.796;2022-10-31T06:38:27;7.60;99.90
6174;DHT22;3120;48.796;9.796;2022-10-31T06:40:54;7.60;99.90
6174;DHT22;3120;48.796;9.796;2022-10-31T06:43:24;7.70;99.90
6174;DHT22;3120;48.796;9.796;2022-10-31T06:45:49;7.60;99.90
6174;DHT22;3120;48.796;9.796;2022-10-31T06:48:15;7.70;99.90
6174;DHT22;3120;48.796;9.796;2022-10-31T06:50:40;9.20;99.90
6174;DHT22;3120;48.796;9.796;2022-10-31T06:53:07;7.90;99.90
6174;DHT22;3120;48.796;9.796;2022-10-31T06:55:33;7.90;99.90
6174;DHT22;3120;48.796;9.796;2022-10-31T06:58:00;8.30;99.90
6174;DHT22;3120;48.796;9.796;2022-10-31T07:00:28;10.30;99.90
6174;DHT22;3120;48.796;9.796;2022-10-31T07:03:00;8.10;99.90
6174;DHT22;3120;48.796;9.796;2022-10-31T07:05:32;8.20;99.90
6174;DHT22;3120;48.796;9.796;2022-10-31T07:08:00;8.30;99.90
6174;DHT22;3120;48.796;9.796;2022-10-31T07:10:27;8.40;99.90
6174;DHT22;3120;48.796;9.796;2022-10-31T07:12:59;8.40;99.90
6174;DHT22;3120;48.796;9.796;2022-10-31T07:15:26;8.50;99.90
6174;DHT22;3120;48.796;9.796;2022-10-31T07:17:52;8.50;99.90
6174;DHT22;3120;48.796;9.796;2022-10-31T07:20:18;10.90;99.90
6174;DHT22;3120;48.796;9.796;2022-10-31T07:22:43;9.90;99.90
6174;DHT22;3120;48.796;9.796;2022-10-31T07:25:09;8.70;99.90
6174;DHT22;3120;48.796;9.796;2022-10-31T07:27:42;8.70;99.90
6174;DHT22;3120;48.796;9.796;2022-10-31T07:30:10;10.00;99.90
6174;DHT22;3120;48.796;9.796;2022-10-31T07:32:40;9.10;99.90
6174;DHT22;3120;48.796;9.796;2022-10-31T07:35:11;9.20;99.90
6174;DHT22;3120;48.796;9.796;2022-10-31T07:37:38;9.40;99.90
6174;DHT22;3120;48.796;9.796;2022-10-31T07:40:05;10.50;99.90
6174;DHT22;3120;48.796;9.796;2022-10-31T07:42:39;9.60;99.90
6174;DHT22;3120;48.796;9.796;2022-10-31T07:45:07;11.10;99.90
6174;DHT22;3120;48.796;9.796;2022-10-31T07:47:42;9.80;99.90
6174;DHT22;3120;48.796;9.796;2022-10-31T07:50:10;9.90;99.90
6174;DHT22;3120;48.796;9.796;2022-10-31T07:52:36;12.40;99.90
6174;DHT22;3120;48.796;9.796;2022-10-31T07:55:02;10.20;99.90
6174;DHT22;3120;48.796;9.796;2022-10-31T07:57:28;10.30;99.90
6174;DHT22;3120;48.796;9.796;2022-10-31T07:59:54;12.20;99.90
6174;DHT22;3120;48.796;9.796;2022-10-31T08:02:20;10.60;99.90
6174;DHT22;3120;48.796;9.796;2022-10-31T08:04:46;11.60;99.90
6174;DHT22;3120;48.796;9.796;2022-10-31T08:07:12;10.90;99.90
6174;DHT22;3120;48.796;9.796;2022-10-31T08:09:37;11.00;99.90
6174;DHT22;3120;48.796;9.796;2022-10-31T08:12:03;12.00;99.90
6174;DHT22;3120;48.796;9.796;2022-10-31T08:14:29;11.30;99.90
6174;DHT22;3120;48.796;9.796;2022-10-31T08:16:54;11.40;99.90
6174;DHT22;3120;48.796;9.796;2022-10-31T08:19:20;11.40;99.90
6174;DHT22;3120;48.796;9.796;2022-10-31T08:21:46;13.60;99.90
6174;DHT22;3120;48.796;9.796;2022-10-31T08:24:11;13.00;99.90
6174;DHT22;3120;48.796;9.796;2022-10-31T08:26:37;11.60;99.90
6174;DHT22;3120;48.796;9.796;2022-10-31T08:29:03;13.70;99.90
6174;DHT22;3120;48.796;9.796;2022-10-31T08:31:29;11.70;99.90
6174;DHT22;3120;48.796;9.796;2022-10-31T08:33:57;12.20;99.90
6174;DHT22;3120;48.796;9.796;2022-10-31T08:36:23;14.20;99.90
6174;DHT22;3120;48.796;9.796;2022-10-31T08:38:49;12.00;99.90
6174;DHT22;3120;48.796;9.796;2022-10-31T08:41:14;13.30;99.90
6174;DHT22;3120;48.796;9.796;2022-10-31T08:43:40;14.60;99.90
6174;DHT22;3120;48.796;9.796;2022-10-31T08:46:06;13.20;99.90
6174;DHT22;3120;48.796;9.796;2022-10-31T08:48:32;14.60;99.90
6174;DHT22;3120;48.796;9.796;2022-10-31T08:50:58;12.60;99.90
6174;DHT22;3120;48.796;9.796;2022-10-31T08:53:25;14.20;99.90
6174;DHT22;3120;48.796;9.796;2022-10-31T08:55:53;14.10;97.70
6174;DHT22;3120;48.796;9.796;2022-10-31T08:58:21;13.70;99.90
6174;DHT22;3120;48.796;9.796;2022-10-31T09:00:50;14.60;80.90
6174;DHT22;3120;48.796;9.796;2022-10-31T09:03:23;15.20;52.80
6174;DHT22;3120;48.796;9.796;2022-10-31T09:05:50;13.20;49.40
6174;DHT22;3120;48.796;9.796;2022-10-31T09:08:16;14.60;48.70
6174;DHT22;3120;48.796;9.796;2022-10-31T09:10:43;15.30;47.60
6174;DHT22;3120;48.796;9.796;2022-10-31T09:13:13;15.20;42.40
6174;DHT22;3120;48.796;9.796;2022-10-31T09:15:41;15.10;23.10
6174;DHT22;3120;48.796;9.796;2022-10-31T09:18:08;14.80;1.00
6174;DHT22;3120;48.796;9.796;2022-10-31T09:20:36;15.80;11.00
6174;DHT22;3120;48.796;9.796;2022-10-31T09:23:03;14.20;1.00
6174;DHT22;3120;48.796;9.796;2022-10-31T09:25:29;16.30;1.00
6174;DHT22;3120;48.796;9.796;2022-10-31T09:27:56;16.90;1.00
6174;DHT22;3120;48.796;9.796;2022-10-31T09:30:22;16.80;1.00
6174;DHT22;3120;48.796;9.796;2022-10-31T09:33:02;15.60;1.00
6174;DHT22;3120;48.796;9.796;2022-10-31T09:35:28;16.60;1.00
6174;DHT22;3120;48.796;9.796;2022-10-31T09:37:58;14.90;1.00
6174;DHT22;3120;48.796;9.796;2022-10-31T09:40:44;16.30;1.00
6174;DHT22;3120;48.796;9.796;2022-10-31T09:43:43;16.80;1.00
6174;DHT22;3120;48.796;9.796;2022-10-31T09:51:50;15.30;1.00
6174;DHT22;3120;48.796;9.796;2022-10-31T09:54:50;15.50;1.00
6174;DHT22;3120;48.796;9.796;2022-10-31T09:57:22;15.70;1.00
6174;DHT22;3120;48.796;9.796;2022-10-31T09:59:50;17.50;1.00
6174;DHT22;3120;48.796;9.796;2022-10-31T10:02:37;17.00;1.00
6174;DHT22;3120;48.796;9.796;2022-10-31T10:05:11;15.90;1.00
6174;DHT22;3120;48.796;9.796;2022-10-31T10:08:01;17.50;99.90
6174;DHT22;3120;48.796;9.796;2022-10-31T10:24:16;17.10;22.90
6174;DHT22;3120;48.796;9.796;2022-10-31T10:32:26;17.40;99.90
6174;DHT22;3120;48.796;9.796;2022-10-31T10:34:57;17.60;99.90
6174;DHT22;3120;48.796;9.796;2022-10-31T10:37:32;18.20;99.90
6174;DHT22;3120;48.796;9.796;2022-10-31T10:40:17;17.70;1.00
6174;DHT22;3120;48.796;9.796;2022-10-31T10:49:24;18.30;1.00
6174;DHT22;3120;48.796;9.796;2022-10-31T10:58:06;18.70;99.90
6174;DHT22;3120;48.796;9.796;2022-10-31T11:03:06;18.80;92.00
6174;DHT22;3120;48.796;9.796;2022-10-31T11:05:37;18.90;1.00
6174;DHT22;3120;48.796;9.796;2022-10-31T11:08:05;18.80;1.00
6174;DHT22;3120;48.796;9.796;2022-10-31T11:10:31;18.80;1.00
6174;DHT22;3120;48.796;9.796;2022-10-31T11:13:17;18.90;1.00
6174;DHT22;3120;48.796;9.796;2022-10-31T11:16:06;18.80;98.90
6174;DHT22;3120;48.796;9.796;2022-10-31T11:18:44;18.90;1.00
6174;DHT22;3120;48.796;9.796;2022-10-31T11:21:23;19.10;99.90
6174;DHT22;3120;48.796;9.796;2022-10-31T11:23:49;19.20;99.90
6174;DHT22;3120;48.796;9.796;2022-10-31T11:26:19;19.30;1.00
6174;DHT22;3120;48.796;9.796;2022-10-31T11:28:59;19.40;1.00
6174;DHT22;3120;48.796;9.796;2022-10-31T11:31:25;19.30;1.00
6174;DHT22;3120;48.796;9.796;2022-10-31T11:34:00;19.70;99.90
6174;DHT22;3120;48.796;9.796;2022-10-31T11:36:30;19.40;1.00
6174;DHT22;3120;48.796;9.796;2022-10-31T11:38:59;19.30;99.90
6174;DHT22;3120;48.796;9.796;2022-10-31T11:41:31;19.40;1.00
6174;DHT22;3120;48.796;9.796;2022-10-31T11:44:10;19.50;99.90
6174;DHT22;3120;48.796;9.796;2022-10-31T11:46:42;19.40;99.90
6174;DHT22;3120;48.796;9.796;2022-10-31T11:49:22;19.40;1.00
6174;DHT22;3120;48.796;9.796;2022-10-31T11:51:52;19.60;1.00
6174;DHT22;3120;48.796;9.796;2022-10-31T11:54:24;19.80;1.00
6174;DHT22;3120;48.796;9.796;2022-10-31T11:56:51;19.80;99.90
6174;DHT22;3120;48.796;9.796;2022-10-31T11:59:32;19.90;1.00
6174;DHT22;3120;48.796;9.796;2022-10-31T12:02:00;19.90;99.90
6174;DHT22;3120;48.796;9.796;2022-10-31T12:04:35;20.00;99.90
6174;DHT22;3120;48.796;9.796;2022-10-31T12:07:02;20.10;1.00
6174;DHT22;3120;48.796;9.796;2022-10-31T12:09:30;20.30;1.00
6174;DHT22;3120;48.796;9.796;2022-10-31T12:15:07;20.40;99.90
6174;DHT22;3120;48.796;9.796;2022-10-31T12:21:09;20.40;1.00
6174;DHT22;3120;48.796;9.796;2022-10-31T12:26:46;20.40;99.90
6174;DHT22;3120;48.796;9.796;2022-10-31T12:39:24;20.60;1.00
6174;DHT22;3120;48.796;9.796;2022-10-31T12:41:50;20.60;99.90
6174;DHT22;3120;48.796;9.796;2022-10-31T12:49:38;20.80;1.00
6174;DHT22;3120;48.796;9.796;2022-10-31T12:57:52;20.90;99.90
6174;DHT22;3120;48.796;9.796;2022-10-31T13:00:19;20.80;1.00
6174;DHT22;3120;48.796;9.796;2022-10-31T13:05:33;20.70;1.00
6174;DHT22;3120;48.796;9.796;2022-10-31T13:08:12;20.60;21.10
6174;DHT22;3120;48.796;9.796;2022-10-31T13:10:40;20.50;99.70
6174;DHT22;3120;48.796;9.796;2022-10-31T13:13:13;20.30;99.90
6174;DHT22;3120;48.796;9.796;2022-10-31T13:15:51;20.30;1.00
6174;DHT22;3120;48.796;9.796;2022-10-31T13:18:33;20.20;99.90
6174;DHT22;3120;48.796;9.796;2022-10-31T13:21:06;20.30;99.90
6174;DHT22;3120;48.796;9.796;2022-10-31T13:23:35;20.30;99.90
6174;DHT22;3120;48.796;9.796;2022-10-31T13:26:13;20.40;99.90
6174;DHT22;3120;48.796;9.796;2022-10-31T13:28:47;20.50;1.00
6174;DHT22;3120;48.796;9.796;2022-10-31T13:31:14;20.50;1.00
6174;DHT22;3120;48.796;9.796;2022-10-31T13:33:45;20.80;99.90
6174;DHT22;3120;48.796;9.796;2022-10-31T13:36:34;20.40;1.00
6174;DHT22;3120;48.796;9.796;2022-10-31T13:45:15;20.40;99.90
6174;DHT22;3120;48.796;9.796;2022-10-31T13:47:42;20.30;99.90
6174;DHT22;3120;48.796;9.796;2022-10-31T13:50:22;20.30;99.90
6174;DHT22;3120;48.796;9.796;2022-10-31T13:52:48;20.10;99.90
6174;DHT22;3120;48.796;9.796;2022-10-31T13:58:04;19.90;1.00
6174;DHT22;3120;48.796;9.796;2022-10-31T14:00:31;19.90;1.00
6174;DHT22;3120;48.796;9.796;2022-10-31T14:03:00;19.70;43.20
6174;DHT22;3120;48.796;9.796;2022-10-31T14:05:32;19.60;99.90
6174;DHT22;3120;48.796;9.796;2022-10-31T14:08:03;19.60;99.90
6174;DHT22;3120;48.796;9.796;2022-10-31T14:10:38;19.60;99.90
6174;DHT22;3120;48.796;9.796;2022-10-31T14:13:20;19.60;1.00
6174;DHT22;3120;48.796;9.796;2022-10-31T14:18:39;19.70;1.00
6174;DHT22;3120;48.796;9.796;2022-10-31T14:21:16;19.70;1.00
6174;DHT22;3120;48.796;9.796;2022-10-31T14:23:52;19.80;1.00
6174;DHT22;3120;48.796;9.796;2022-10-31T14:29:23;20.10;99.90
6174;DHT22;3120;48.796;9.796;2022-10-31T14:32:25;20.30;1.00
6174;DHT22;3120;48.796;9.796;2022-10-31T14:34:56;20.40;99.90
6174;DHT22;3120;48.796;9.796;2022-10-31T14:45:24;20.70;99.90
6174;DHT22;3120;48.796;9.796;2022-10-31T14:51:01;20.50;99.90
6174;DHT22;3120;48.796;9.796;2022-10-31T14:53:33;20.40;1.00
6174;DHT22;3120;48.796;9.796;2022-10-31T14:56:02;20.30;99.90
6174;DHT22;3120;48.796;9.796;2022-10-31T14:58:41;20.20;1.00
6174;DHT22;3120;48.796;9.796;2022-10-31T15:01:19;20.10;1.00
6174;DHT22;3120;48.796;9.796;2022-10-31T15:03:46;20.00;99.90
6174;DHT22;3120;48.796;9.796;2022-10-31T15:06:15;19.90;1.00
6174;DHT22;3120;48.796;9.796;2022-10-31T15:11:18;19.50;1.00
6174;DHT22;3120;48.796;9.796;2022-10-31T15:13:44;19.40;1.00
6174;DHT22;3120;48.796;9.796;2022-10-31T15:16:12;19.30;1.00
6174;DHT22;3120;48.796;9.796;2022-10-31T15:18:49;19.20;1.00
6174;DHT22;3120;48.796;9.796;2022-10-31T15:21:19;18.90;11.80
6174;DHT22;3120;48.796;9.796;2022-10-31T15:23:46;18.80;21.00
6174;DHT22;3120;48.796;9.796;2022-10-31T15:26:18;18.60;47.80
6174;DHT22;3120;48.796;9.796;2022-10-31T15:28:46;18.40;68.00
6174;DHT22;3120;48.796;9.796;2022-10-31T15:31:17;18.30;79.60
6174;DHT22;3120;48.796;9.796;2022-10-31T15:33:46;18.10;99.90
6174;DHT22;3120;48.796;9.796;2022-10-31T15:36:24;18.10;99.90
6174;DHT22;3120;48.796;9.796;2022-10-31T15:38:50;17.70;99.90
6174;DHT22;3120;48.796;9.796;2022-10-31T15:41:34;17.70;99.90
6174;DHT22;3120;48.796;9.796;2022-10-31T15:46:59;17.40;99.90
6174;DHT22;3120;48.796;9.796;2022-10-31T15:49:40;17.20;99.90
6174;DHT22;3120;48.796;9.796;2022-10-31T15:55:19;17.00;99.90
6174;DHT22;3120;48.796;9.796;2022-10-31T15:57:48;17.00;99.90
6174;DHT22;3120;48.796;9.796;2022-10-31T16:00:28;16.80;99.90
6174;DHT22;3120;48.796;9.796;2022-10-31T16:05:53;16.40;99.90
6174;DHT22;3120;48.796;9.796;2022-10-31T16:11:45;16.10;99.90
6174;DHT22;3120;48.796;9.796;2022-10-31T16:16:19;16.00;99.90
6174;DHT22;3120;48.796;9.796;2022-10-31T16:18:49;15.90;99.90
6174;DHT22;3120;48.796;9.796;2022-10-31T16:21:15;15.80;99.90
6174;DHT22;3120;48.796;9.796;2022-10-31T16:23:53;16.40;99.90
6174;DHT22;3120;48.796;9.796;2022-10-31T16:26:19;16.40;99.90
6174;DHT22;3120;48.796;9.796;2022-10-31T16:28:53;16.00;99.90
6174;DHT22;3120;48.796;9.796;2022-10-31T16:31:27;16.50;99.90
6174;DHT22;3120;48.796;9.796;2022-10-31T16:36:36;15.20;99.90
6174;DHT22;3120;48.796;9.796;2022-10-31T16:39:04;15.10;99.90
6174;DHT22;3120;48.796;9.796;2022-10-31T16:41:32;16.90;99.90
6174;DHT22;3120;48.796;9.796;2022-10-31T16:44:00;14.90;99.90
6174;DHT22;3120;48.796;9.796;2022-10-31T16:46:27;14.80;99.90
6174;DHT22;3120;48.796;9.796;2022-10-31T16:48:53;14.80;99.90
6174;DHT22;3120;48.796;9.796;2022-10-31T16:51:20;14.70;99.90
6174;DHT22;3120;48.796;9.796;2022-10-31T16:53:46;16.00;99.90
6174;DHT22;3120;48.796;9.796;2022-10-31T16:56:34;14.50;99.90
6174;DHT22;3120;48.796;9.796;2022-10-31T16:59:03;14.40;99.90
6174;DHT22;3120;48.796;9.796;2022-10-31T17:01:30;14.40;99.90
6174;DHT22;3120;48.796;9.796;2022-10-31T17:03:57;14.30;99.90
6174;DHT22;3120;48.796;9.796;2022-10-31T17:06:23;14.20;99.90
6174;DHT22;3120;48.796;9.796;2022-10-31T17:08:48;13.50;99.90
6174;DHT22;3120;48.796;9.796;2022-10-31T17:11:21;14.10;99.90
6174;DHT22;3120;48.796;9.796;2022-10-31T17:13:48;14.00;99.90
6174;DHT22;3120;48.796;9.796;2022-10-31T17:16:14;15.10;99.90
6174;DHT22;3120;48.796;9.796;2022-10-31T17:18:40;15.20;99.90
6174;DHT22;3120;48.796;9.796;2022-10-31T17:21:15;14.90;99.90
6174;DHT22;3120;48.796;9.796;2022-10-31T17:23:41;14.70;99.90
6174;DHT22;3120;48.796;9.796;2022-10-31T17:26:08;15.00;99.90
6174;DHT22;3120;48.796;9.796;2022-10-31T17:28:35;15.10;99.90
6174;DHT22;3120;48.796;9.796;2022-10-31T17:31:01;16.10;99.90
6174;DHT22;3120;48.796;9.796;2022-10-31T17:33:26;11.80;99.90
6174;DHT22;3120;48.796;9.796;2022-10-31T17:35:52;15.30;99.90
6174;DHT22;3120;48.796;9.796;2022-10-31T17:38:18;14.30;99.90
6174;DHT22;3120;48.796;9.796;2022-10-31T17:40:44;13.40;99.90
6174;DHT22;3120;48.796;9.796;2022-10-31T17:43:10;13.30;99.90
6174;DHT22;3120;48.796;9.796;2022-10-31T17:45:38;13.30;99.90
6174;DHT22;3120;48.796;9.796;2022-10-31T17:48:04;14.10;99.90
6174;DHT22;3120;48.796;9.796;2022-10-31T17:50:30;13.20;99.90
6174;DHT22;3120;48.796;9.796;2022-10-31T17:52:57;11.90;99.90
6174;DHT22;3120;48.796;9.796;2022-10-31T17:55:23;13.10;99.90
6174;DHT22;3120;48.796;9.796;2022-10-31T17:57:49;13.60;99.90
6174;DHT22;3120;48.796;9.796;2022-10-31T18:00:18;13.00;99.90
6174;DHT22;3120;48.796;9.796;2022-10-31T18:02:49;12.90;99.90
6174;DHT22;3120;48.796;9.796;2022-10-31T18:05:15;12.00;99.90
6174;DHT22;3120;48.796;9.796;2022-10-31T18:07:40;12.70;99.90
6174;DHT22;3120;48.796;9.796;2022-10-31T18:10:06;13.40;99.90
6174;DHT22;3120;48.796;9.796;2022-10-31T18:12:34;11.10;99.90
6174;DHT22;3120;48.796;9.796;2022-10-31T18:15:00;14.10;99.90
6174;DHT22;3120;48.796;9.796;2022-10-31T18:17:26;12.60;99.90
6174;DHT22;3120;48.796;9.796;2022-10-31T18:19:51;13.80;99.90
6174;DHT22;3120;48.796;9.796;2022-10-31T18:22:17;12.50;99.90
6174;DHT22;3120;48.796;9.796;2022-10-31T18:24:42;14.70;99.90
6174;DHT22;3120;48.796;9.796;2022-10-31T18:27:08;13.10;99.90
6174;DHT22;3120;48.796;9.796;2022-10-31T18:29:34;11.10;99.90
6174;DHT22;3120;48.796;9.796;2022-10-31T18:31:59;13.80;99.90
6174;DHT22;3120;48.796;9.796;2022-10-31T18:34:25;13.20;99.90
6174;DHT22;3120;48.796;9.796;2022-10-31T18:36:51;13.70;99.90
6174;DHT22;3120;48.796;9.796;2022-10-31T18:39:17;12.20;99.90
6174;DHT22;3120;48.796;9.796;2022-10-31T18:41:42;13.70;99.90
6174;DHT22;3120;48.796;9.796;2022-10-31T18:44:08;13.90;99.90
6174;DHT22;3120;48.796;9.796;2022-10-31T18:46:35;12.10;99.90
6174;DHT22;3120;48.796;9.796;2022-10-31T18:49:02;12.00;99.90
6174;DHT22;3120;48.796;9.796;2022-10-31T18:51:28;14.30;99.90
6174;DHT22;3120;48.796;9.796;2022-10-31T18:53:56;11.90;99.90
6174;DHT22;3120;48.796;9.796;2022-10-31T18:56:22;11.90;99.90
6174;DHT22;3120;48.796;9.796;2022-10-31T18:58:49;13.40;99.90
6174;DHT22;3120;48.796;9.796;2022-10-31T19:01:16;12.90;99.90
6174;DHT22;3120;48.796;9.796;2022-10-31T19:04:06;11.90;99.90
6174;DHT22;3120;48.796;9.796;2022-10-31T19:06:32;11.90;99.90
6174;DHT22;3120;48.796;9.796;2022-10-31T19:09:04;11.90;99.90
6174;DHT22;3120;48.796;9.796;2022-10-31T19:11:31;11.80;99.90
6174;DHT22;3120;48.796;9.796;2022-10-31T19:13:57;11.80;99.90
6174;DHT22;3120;48.796;9.796;2022-10-31T19:16:23;13.30;99.90
6174;DHT22;3120;48.796;9.796;2022-10-31T19:18:53;11.70;99.90
6174;DHT22;3120;48.796;9.796;2022-10-31T19:21:19;12.90;99.90
6174;DHT22;3120;48.796;9.796;2022-10-31T19:23:45;13.30;99.90
6174;DHT22;3120;48.796;9.796;2022-10-31T19:26:11;12.90;99.90